Time;durP1;ratioP1;P1;durP2;ratioP2;P2;SDS_P1;SDS_P2;PMS_P1;PMS_P2;Temp;Humidity;BMP_temperature;BMP_pressure;BME280_temperature;BME280_humidity;BME280_pressure;Samples;Min_cycle;Max_cycle;Signal;HPM_P1;HPM_P2
2023/05/10 00:01:04;;;;;;;0.40;0.40;;;14.00;99.90;;;;;;5071025;28;20024;-46
2023/05/10 00:03:29;;;;;;;0.95;0.60;;;14.00;99.90;;;;;;5071971;28;20125;-48
2023/05/10 00:05:55;;;;;;;0.40;0.40;;;14.00;99.90;;;;;;5076451;28;20504;-45
2023/05/10 00:08:20;;;;;;;0.80;0.38;;;14.00;99.90;;;;;;5054486;28;20108;-48
2023/05/10 00:10:46;;;;;;;0.40;0.40;;;14.00;99.90;;;;;;5070825;28;20162;-53
2023/05/10 00:13:11;;;;;;;0.63;0.60;;;14.10;99.90;;;;;;5067373;28;20025;-53
2023/05/10 00:15:37;;;;;;;1.75;0.60;;;14.00;99.90;;;;;;5067672;28;20074;-58
2023/05/10 00:18:02;;;;;;;3.33;0.60;;;14.00;99.90;;;;;;5069296;28;20039;-46
2023/05/10 00:20:28;;;;;;;3.03;0.50;;;14.00;99.90;;;;;;5069718;28;20024;-48
2023/05/10 00:22:53;;;;;;;0.75;0.60;;;13.90;99.90;;;;;;5069982;28;20111;-46
2023/05/10 00:25:21;;;;;;;0.65;0.65;;;13.90;99.90;;;;;;5069668;28;20028;-47
2023/05/10 00:27:47;;;;;;;2.88;0.45;;;13.90;99.90;;;;;;5069537;28;20032;-50
2023/05/10 00:30:12;;;;;;;1.15;0.57;;;13.90;99.90;;;;;;5069770;28;20029;-51
2023/05/10 00:32:38;;;;;;;0.47;0.47;;;13.90;99.90;;;;;;5070874;28;20037;-49
2023/05/10 00:35:03;;;;;;;0.43;0.43;;;13.90;99.90;;;;;;5071674;28;20028;-46
2023/05/10 00:37:29;;;;;;;0.35;0.35;;;13.90;99.90;;;;;;5071532;28;20034;-46
2023/05/10 00:39:55;;;;;;;4.95;0.70;;;13.80;99.90;;;;;;5072185;28;20032;-45
2023/05/10 00:42:20;;;;;;;1.17;0.50;;;13.80;99.90;;;;;;5071451;28;20052;-47
2023/05/10 00:44:46;;;;;;;0.32;0.32;;;13.90;99.90;;;;;;5071194;28;20036;-46
2023/05/10 00:47:12;;;;;;;0.30;0.30;;;13.80;99.90;;;;;;5071226;28;20085;-45
2023/05/10 00:49:38;;;;;;;0.50;0.45;;;13.80;99.90;;;;;;5071609;28;20103;-45
2023/05/10 00:52:03;;;;;;;0.30;0.30;;;13.80;99.90;;;;;;5053341;28;20112;-46
2023/05/10 00:54:30;;;;;;;1.00;0.85;;;13.70;99.90;;;;;;5072015;28;20032;-46
2023/05/10 00:56:56;;;;;;;2.42;0.60;;;13.80;99.90;;;;;;5071146;28;20039;-50
2023/05/10 00:59:22;;;;;;;0.77;0.63;;;13.80;99.90;;;;;;5071504;28;20426;-49
2023/05/10 01:01:48;;;;;;;0.50;0.50;;;13.70;99.90;;;;;;5071028;28;20020;-48
2023/05/10 01:04:14;;;;;;;1.85;0.40;;;13.80;99.90;;;;;;5071650;28;20081;-51
2023/05/10 01:06:41;;;;;;;0.50;0.50;;;13.70;99.90;;;;;;5070949;28;20035;-50
2023/05/10 01:09:06;;;;;;;1.25;0.40;;;13.70;99.90;;;;;;5071471;28;20495;-47
2023/05/10 01:11:37;;;;;;;1.17;0.50;;;13.80;99.90;;;;;;5053097;28;20056;-48
2023/05/10 01:14:03;;;;;;;1.63;0.43;;;13.70;99.90;;;;;;5071729;28;20032;-46
2023/05/10 01:16:36;;;;;;;0.38;0.38;;;13.70;99.90;;;;;;5071258;28;20028;-46
2023/05/10 01:19:01;;;;;;;1.75;0.40;;;13.70;99.90;;;;;;5071325;28;20030;-48
2023/05/10 01:21:44;;;;;;;0.60;0.60;;;13.70;99.90;;;;;;5052068;28;20036;-46
2023/05/10 01:24:26;;;;;;;0.30;0.30;;;13.70;99.90;;;;;;5073026;28;20025;-50
2023/05/10 01:27:03;;;;;;;0.50;0.50;;;13.70;99.90;;;;;;5074961;28;20400;-47
2023/05/10 01:29:57;;;;;;;0.38;0.38;;;13.70;99.90;;;;;;5075354;28;20039;-46
2023/05/10 01:32:31;;;;;;;0.57;0.43;;;13.70;99.90;;;;;;5075057;28;20449;-46
2023/05/10 01:35:06;;;;;;;0.50;0.50;;;13.80;99.90;;;;;;5057022;28;20033;-46
2023/05/10 01:37:44;;;;;;;6.10;0.50;;;13.80;99.90;;;;;;5074889;28;20040;-46
2023/05/10 01:40:21;;;;;;;0.50;0.50;;;13.80;99.90;;;;;;5075186;28;20492;-47
2023/05/10 01:42:55;;;;;;;0.82;0.50;;;13.70;99.90;;;;;;5074733;28;20033;-46
2023/05/10 01:45:39;;;;;;;2.55;0.60;;;13.70;99.90;;;;;;5074946;28;20032;-47
2023/05/10 01:48:11;;;;;;;0.50;0.50;;;13.70;99.90;;;;;;5074678;28;20392;-49
2023/05/10 01:50:41;;;;;;;0.43;0.43;;;13.70;99.90;;;;;;5074617;28;20029;-50
2023/05/10 01:53:08;;;;;;;0.60;0.57;;;13.60;99.90;;;;;;5075264;28;20020;-51
2023/05/10 01:55:48;;;;;;;2.15;0.50;;;13.60;99.90;;;;;;5074631;28;20020;-48
2023/05/10 01:58:18;;;;;;;0.50;0.50;;;13.60;99.90;;;;;;5074585;28;20032;-47
2023/05/10 02:00:45;;;;;;;0.60;0.45;;;13.60;99.90;;;;;;5074424;28;20105;-48
2023/05/10 02:03:13;;;;;;;0.75;0.52;;;13.60;99.90;;;;;;5074642;28;20434;-50
2023/05/10 02:05:41;;;;;;;1.88;0.60;;;13.60;99.90;;;;;;5074342;28;20025;-46
2023/05/10 02:08:07;;;;;;;5.50;0.57;;;13.60;99.90;;;;;;5074119;28;20052;-47
2023/05/10 02:10:36;;;;;;;1.67;0.50;;;13.60;99.90;;;;;;5074298;28;20074;-50
2023/05/10 02:13:04;;;;;;;2.60;1.33;;;13.60;99.90;;;;;;5074554;28;20027;-51
2023/05/10 02:15:31;;;;;;;0.63;0.63;;;13.50;99.90;;;;;;5074217;28;20020;-52
2023/05/10 02:17:58;;;;;;;3.50;0.50;;;13.60;99.90;;;;;;5073909;28;20534;-48
2023/05/10 02:20:25;;;;;;;0.73;0.57;;;13.60;99.90;;;;;;5055336;28;20055;-50
2023/05/10 02:22:53;;;;;;;2.40;0.70;;;13.60;99.90;;;;;;5074220;28;20028;-49
2023/05/10 02:25:21;;;;;;;1.15;0.63;;;13.60;99.90;;;;;;5074083;28;20029;-46
2023/05/10 02:27:48;;;;;;;0.60;0.60;;;13.60;99.90;;;;;;5073820;28;20043;-48
2023/05/10 02:30:14;;;;;;;0.50;0.50;;;13.50;99.90;;;;;;5074099;28;20020;-49
2023/05/10 02:32:41;;;;;;;2.22;0.60;;;13.60;99.90;;;;;;5073683;28;20024;-48
2023/05/10 02:35:08;;;;;;;0.63;0.63;;;13.60;99.90;;;;;;5073647;28;20016;-48
2023/05/10 02:37:35;;;;;;;4.47;0.68;;;13.50;99.90;;;;;;5055984;28;20414;-50
2023/05/10 02:40:03;;;;;;;6.95;0.70;;;13.60;99.90;;;;;;5074402;28;20035;-49
2023/05/10 02:42:30;;;;;;;1.27;0.40;;;13.50;99.90;;;;;;5073576;28;20028;-49
2023/05/10 02:45:00;;;;;;;0.63;0.63;;;13.50;99.90;;;;;;5073725;28;20033;-45
2023/05/10 02:47:27;;;;;;;1.30;0.40;;;13.50;99.90;;;;;;5073446;28;20024;-46
2023/05/10 02:49:52;;;;;;;2.60;0.98;;;13.50;99.90;;;;;;5073792;28;20027;-47
2023/05/10 02:52:24;;;;;;;6.80;1.05;;;13.50;99.90;;;;;;5073489;28;20088;-45
2023/05/10 02:54:54;;;;;;;0.40;0.40;;;13.50;99.90;;;;;;5055492;28;20025;-46
2023/05/10 02:57:31;;;;;;;0.63;0.45;;;13.50;99.90;;;;;;5073354;28;20032;-49
2023/05/10 02:59:57;;;;;;;0.50;0.50;;;13.50;99.90;;;;;;5073692;28;20032;-47
2023/05/10 03:02:23;;;;;;;1.33;0.50;;;13.50;99.90;;;;;;5073265;28;20099;-45
2023/05/10 03:04:48;;;;;;;0.47;0.47;;;13.50;99.90;;;;;;5073455;28;20024;-50
2023/05/10 03:07:14;;;;;;;0.68;0.68;;;13.40;99.90;;;;;;5073054;28;20035;-47
2023/05/10 03:09:40;;;;;;;1.70;0.50;;;13.50;99.90;;;;;;5073278;28;20058;-48
2023/05/10 03:12:24;;;;;;;1.45;0.70;;;13.50;99.90;;;;;;5073033;28;20020;-50
2023/05/10 03:14:59;;;;;;;1.83;0.63;;;13.40;99.90;;;;;;5073301;28;20043;-45
2023/05/10 03:18:01;;;;;;;3.03;0.50;;;13.50;99.90;;;;;;5073596;28;20139;-51
2023/05/10 03:20:33;;;;;;;1.38;0.70;;;13.50;99.90;;;;;;5071548;28;20119;-50
2023/05/10 03:23:33;;;;;;;4.55;0.52;;;13.50;99.90;;;;;;5073400;28;20032;-46
2023/05/10 03:26:00;;;;;;;0.70;0.70;;;13.50;99.90;;;;;;5068788;28;20078;-46
2023/05/10 03:28:27;;;;;;;3.70;0.88;;;13.50;99.90;;;;;;5072741;28;20032;-48
2023/05/10 03:30:53;;;;;;;0.85;0.47;;;13.50;99.90;;;;;;5072742;28;20024;-49
2023/05/10 03:33:19;;;;;;;2.47;0.68;;;13.50;99.90;;;;;;5073061;28;20039;-49
2023/05/10 03:35:45;;;;;;;1.30;0.70;;;13.60;99.90;;;;;;5072795;28;20458;-46
2023/05/10 03:38:12;;;;;;;1.23;0.70;;;13.60;99.90;;;;;;5072389;28;20031;-47
2023/05/10 03:40:37;;;;;;;0.80;0.80;;;13.60;99.90;;;;;;5054529;28;20021;-48
2023/05/10 03:43:03;;;;;;;1.17;0.77;;;13.60;99.90;;;;;;5072709;28;20039;-49
2023/05/10 03:45:28;;;;;;;0.75;0.63;;;13.60;99.90;;;;;;5072389;28;20025;-43
2023/05/10 03:47:54;;;;;;;0.88;0.80;;;13.60;99.90;;;;;;5071699;28;20025;-47
2023/05/10 03:50:20;;;;;;;0.80;0.73;;;13.60;99.90;;;;;;5072629;28;20024;-49
2023/05/10 03:52:46;;;;;;;0.77;0.77;;;13.50;99.90;;;;;;5072329;28;20024;-48
2023/05/10 03:55:12;;;;;;;0.70;0.70;;;13.50;99.90;;;;;;5072123;28;20496;-46
2023/05/10 03:57:37;;;;;;;0.60;0.60;;;13.50;99.90;;;;;;5072209;28;20021;-50
2023/05/10 04:00:03;;;;;;;0.75;0.75;;;13.50;99.90;;;;;;5072386;28;20073;-47
2023/05/10 04:02:30;;;;;;;0.85;0.85;;;13.50;99.90;;;;;;5072141;28;20237;-46
2023/05/10 04:04:55;;;;;;;0.82;0.82;;;13.50;99.90;;;;;;5072219;28;20048;-47
2023/05/10 04:07:21;;;;;;;2.92;0.90;;;13.50;99.90;;;;;;5071897;28;20063;-46
2023/05/10 04:09:47;;;;;;;0.85;0.85;;;13.50;99.90;;;;;;5072214;28;20035;-49
2023/05/10 04:12:12;;;;;;;0.80;0.80;;;13.50;99.90;;;;;;5072057;28;20507;-46
2023/05/10 04:14:38;;;;;;;0.98;0.98;;;13.50;99.90;;;;;;5072054;28;20614;-48
2023/05/10 04:17:03;;;;;;;1.10;1.10;;;13.50;99.90;;;;;;5071642;28;20062;-49
2023/05/10 04:19:30;;;;;;;0.90;0.90;;;13.60;99.90;;;;;;5072110;28;20504;-50
2023/05/10 04:21:55;;;;;;;3.22;1.20;;;13.60;99.90;;;;;;5070666;28;20024;-47
2023/05/10 04:24:21;;;;;;;2.95;1.10;;;13.50;99.90;;;;;;5071914;28;20039;-49
2023/05/10 04:26:47;;;;;;;1.48;1.10;;;13.50;99.90;;;;;;5071429;28;20039;-48
2023/05/10 04:29:12;;;;;;;2.63;1.20;;;13.50;99.90;;;;;;5071951;28;20021;-48
2023/05/10 04:31:38;;;;;;;2.15;1.30;;;13.50;99.90;;;;;;5071629;28;20066;-46
2023/05/10 04:34:03;;;;;;;2.80;1.05;;;13.50;99.90;;;;;;5071727;28;20096;-48
2023/05/10 04:36:29;;;;;;;1.30;1.30;;;13.50;99.90;;;;;;5071668;28;20093;-49
2023/05/10 04:38:54;;;;;;;3.70;1.42;;;13.50;99.90;;;;;;5071511;28;20028;-47
2023/05/10 04:41:20;;;;;;;2.40;1.40;;;13.50;99.90;;;;;;5071441;28;20032;-46
2023/05/10 04:43:46;;;;;;;4.53;1.30;;;13.50;99.90;;;;;;5071987;28;20086;-48
2023/05/10 04:46:11;;;;;;;5.32;1.58;;;13.60;99.90;;;;;;5071553;28;20107;-48
2023/05/10 04:48:37;;;;;;;1.45;1.40;;;13.60;99.90;;;;;;5071251;28;20020;-46
2023/05/10 04:51:03;;;;;;;1.95;1.63;;;13.60;99.90;;;;;;5071152;28;20040;-47
2023/05/10 04:53:29;;;;;;;1.58;1.33;;;13.60;99.90;;;;;;5071740;28;20032;-48
2023/05/10 04:55:54;;;;;;;1.77;1.40;;;13.60;99.90;;;;;;5071278;28;20038;-47
2023/05/10 04:58:20;;;;;;;2.30;1.48;;;13.60;99.90;;;;;;5071019;28;20392;-47
2023/05/10 05:00:46;;;;;;;5.28;1.48;;;13.70;99.90;;;;;;5071702;28;20451;-47
2023/05/10 05:03:11;;;;;;;1.17;1.15;;;13.60;99.90;;;;;;5071379;28;20095;-48
2023/05/10 05:05:37;;;;;;;1.83;1.70;;;13.60;99.90;;;;;;5053201;28;20302;-50
2023/05/10 05:08:03;;;;;;;1.58;1.45;;;13.60;99.90;;;;;;5071277;28;20403;-48
2023/05/10 05:10:28;;;;;;;1.52;1.27;;;13.70;99.90;;;;;;5071011;28;20016;-48
2023/05/10 05:12:54;;;;;;;1.65;1.55;;;13.70;99.90;;;;;;5071305;28;20104;-46
2023/05/10 05:15:19;;;;;;;4.22;1.60;;;13.70;99.90;;;;;;5071218;28;20064;-48
2023/05/10 05:17:45;;;;;;;3.97;1.50;;;13.70;99.90;;;;;;5071076;28;20055;-47
2023/05/10 05:20:11;;;;;;;1.52;1.42;;;13.80;99.90;;;;;;5070290;28;20070;-50
2023/05/10 05:22:37;;;;;;;3.33;1.48;;;13.80;99.90;;;;;;5070929;28;20036;-49
2023/05/10 05:25:03;;;;;;;2.38;2.00;;;13.90;99.90;;;;;;5070923;28;20048;-49
2023/05/10 05:27:29;;;;;;;5.80;1.77;;;13.80;99.90;;;;;;5070782;28;20020;-52
2023/05/10 05:29:56;;;;;;;1.83;1.67;;;13.80;99.90;;;;;;5071480;28;20021;-50
2023/05/10 05:32:23;;;;;;;3.83;1.73;;;13.80;99.90;;;;;;5070930;28;20016;-46
2023/05/10 05:34:49;;;;;;;2.10;1.52;;;13.80;99.90;;;;;;5071213;28;20020;-46
2023/05/10 05:37:19;;;;;;;1.75;1.65;;;13.80;99.90;;;;;;5071307;28;20109;-47
2023/05/10 05:39:45;;;;;;;5.45;1.70;;;13.80;99.90;;;;;;5071276;28;20029;-46
2023/05/10 05:42:11;;;;;;;3.88;1.65;;;13.80;99.90;;;;;;5070966;28;20033;-48
2023/05/10 05:44:37;;;;;;;4.93;2.00;;;13.80;99.90;;;;;;5070885;28;20090;-47
2023/05/10 05:47:03;;;;;;;9.63;1.85;;;13.80;99.90;;;;;;5070792;28;20050;-46
2023/05/10 05:49:28;;;;;;;14.68;2.70;;;13.90;99.90;;;;;;5053141;28;20027;-48
2023/05/10 05:51:54;;;;;;;5.53;1.83;;;13.90;99.90;;;;;;5071063;28;20021;-47
2023/05/10 05:54:20;;;;;;;2.38;2.17;;;14.00;99.90;;;;;;5071414;28;20051;-50
2023/05/10 05:56:45;;;;;;;3.25;1.73;;;14.10;99.90;;;;;;5071032;28;20060;-48
2023/05/10 05:59:11;;;;;;;2.88;1.90;;;14.20;99.90;;;;;;5071423;28;20036;-50
2023/05/10 06:01:37;;;;;;;4.72;1.90;;;14.30;99.90;;;;;;5071181;28;20055;-51
2023/05/10 06:04:02;;;;;;;2.90;1.95;;;14.40;99.90;;;;;;5071514;28;20060;-50
2023/05/10 06:06:28;;;;;;;2.13;1.85;;;14.40;99.90;;;;;;5053334;28;20025;-48
2023/05/10 06:08:53;;;;;;;5.50;2.20;;;14.40;99.90;;;;;;5071345;28;20036;-48
2023/05/10 06:11:20;;;;;;;3.30;1.98;;;14.50;99.90;;;;;;5074028;28;20036;-48
2023/05/10 06:13:46;;;;;;;7.15;1.65;;;14.60;99.90;;;;;;5075767;28;20067;-51
2023/05/10 06:16:13;;;;;;;6.47;2.08;;;14.70;99.90;;;;;;5074109;28;20017;-47
2023/05/10 06:18:38;;;;;;;2.17;1.90;;;14.80;99.90;;;;;;5074732;28;20024;-48
2023/05/10 06:21:04;;;;;;;6.05;2.10;;;14.90;99.90;;;;;;5074740;28;20028;-47
2023/05/10 06:23:29;;;;;;;5.00;2.38;;;14.90;99.90;;;;;;5075189;28;20451;-52
2023/05/10 06:25:55;;;;;;;7.13;2.75;;;15.00;99.90;;;;;;5073030;28;20024;-51
2023/05/10 06:28:20;;;;;;;2.28;1.83;;;15.00;99.90;;;;;;5073323;28;20033;-46
2023/05/10 06:30:46;;;;;;;2.85;2.00;;;14.80;99.90;;;;;;5074230;28;20017;-48
2023/05/10 06:33:11;;;;;;;3.00;1.95;;;15.00;99.90;;;;;;5074665;28;20039;-49
2023/05/10 06:35:37;;;;;;;7.35;2.55;;;15.00;99.90;;;;;;5075400;28;20036;-50
2023/05/10 06:38:02;;;;;;;8.05;2.13;;;15.10;99.90;;;;;;5056168;28;20025;-46
2023/05/10 06:40:28;;;;;;;7.72;2.08;;;15.10;99.90;;;;;;5074142;28;20032;-50
2023/05/10 06:42:53;;;;;;;2.53;1.90;;;15.30;99.90;;;;;;5074458;28;20032;-46
2023/05/10 06:45:19;;;;;;;4.45;1.95;;;15.40;99.90;;;;;;5073826;28;20045;-50
2023/05/10 06:47:45;;;;;;;4.45;1.95;;;15.60;99.90;;;;;;5073871;28;20039;-50
2023/05/10 06:50:11;;;;;;;2.63;2.42;;;15.60;99.90;;;;;;5074104;28;20412;-50
2023/05/10 06:52:37;;;;;;;2.45;2.30;;;15.60;99.90;;;;;;5073607;28;20032;-50
2023/05/10 06:55:04;;;;;;;2.50;2.17;;;15.40;99.90;;;;;;5086415;22;20060;-40
2023/05/10 06:57:30;;;;;;;2.55;2.22;;;15.20;99.90;;;;;;5053055;28;20033;-42
2023/05/10 06:59:56;;;;;;;4.82;2.80;;;15.20;99.90;;;;;;5053270;28;20025;-45
2023/05/10 07:02:22;;;;;;;3.33;3.00;;;15.00;99.90;;;;;;5053264;28;20114;-42
2023/05/10 07:04:48;;;;;;;3.28;2.92;;;15.00;99.90;;;;;;5053424;28;20028;-45
2023/05/10 07:07:14;;;;;;;6.60;2.92;;;15.00;99.90;;;;;;5053124;28;20033;-43
2023/05/10 07:09:39;;;;;;;5.00;2.58;;;15.00;99.90;;;;;;5053242;28;20107;-46
2023/05/10 07:12:05;;;;;;;4.22;2.85;;;15.20;99.90;;;;;;5053177;28;20021;-44
2023/05/10 07:14:31;;;;;;;2.88;2.50;;;15.40;99.90;;;;;;5053237;28;20024;-46
2023/05/10 07:16:56;;;;;;;2.97;2.67;;;15.50;99.90;;;;;;5052752;28;20037;-45
2023/05/10 07:19:22;;;;;;;5.13;3.75;;;15.70;99.90;;;;;;5053803;28;20431;-43
2023/05/10 07:21:47;;;;;;;4.28;2.80;;;15.80;99.90;;;;;;5053835;28;20021;-46
2023/05/10 07:24:13;;;;;;;4.95;3.10;;;15.90;99.90;;;;;;5053194;28;20602;-45
2023/05/10 07:26:38;;;;;;;5.18;3.05;;;15.90;99.90;;;;;;5052802;28;20101;-47
2023/05/10 07:29:04;;;;;;;5.40;3.13;;;16.00;99.90;;;;;;5052922;28;20163;-47
2023/05/10 07:31:29;;;;;;;6.72;3.50;;;16.00;99.90;;;;;;5052479;28;20029;-47
2023/05/10 07:33:55;;;;;;;5.35;2.97;;;16.00;99.90;;;;;;5052939;28;20392;-45
2023/05/10 07:36:20;;;;;;;4.22;3.80;;;16.00;99.90;;;;;;5051697;28;20101;-46
2023/05/10 07:38:46;;;;;;;3.38;3.10;;;16.00;99.90;;;;;;5052447;28;20033;-48
2023/05/10 07:41:12;;;;;;;3.70;3.15;;;16.00;99.90;;;;;;5052443;28;20017;-47
2023/05/10 07:43:38;;;;;;;4.85;3.28;;;16.00;99.90;;;;;;5052836;28;20487;-48
2023/05/10 07:46:03;;;;;;;6.82;3.40;;;16.00;99.90;;;;;;5052119;28;20021;-46
2023/05/10 07:48:29;;;;;;;6.03;3.53;;;16.00;99.90;;;;;;5051865;28;20404;-44
2023/05/10 07:50:54;;;;;;;3.40;3.10;;;16.00;99.90;;;;;;5052365;28;20526;-43
2023/05/10 07:53:20;;;;;;;6.40;3.15;;;16.10;99.90;;;;;;5052463;28;20067;-47
2023/05/10 07:55:50;;;;;;;4.85;2.70;;;16.20;99.90;;;;;;5052333;28;20028;-41
2023/05/10 07:58:16;;;;;;;3.92;2.50;;;16.20;99.90;;;;;;5043387;28;20412;-47
2023/05/10 08:00:41;;;;;;;5.00;2.50;;;16.40;99.90;;;;;;5051583;28;20029;-49
2023/05/10 08:03:07;;;;;;;3.03;2.25;;;16.40;99.90;;;;;;5052411;28;20131;-43
2023/05/10 08:05:32;;;;;;;2.65;2.42;;;16.50;99.90;;;;;;5052011;28;20028;-46
2023/05/10 08:07:59;;;;;;;2.08;1.85;;;16.40;99.90;;;;;;5051382;28;20032;-46
2023/05/10 08:10:25;;;;;;;4.50;2.25;;;16.30;99.90;;;;;;5034316;28;20036;-46
2023/05/10 08:12:50;;;;;;;3.35;2.30;;;16.30;99.90;;;;;;5037124;28;20487;-44
2023/05/10 08:15:16;;;;;;;3.40;2.88;;;16.20;99.90;;;;;;5070910;28;20024;-46
2023/05/10 08:17:42;;;;;;;3.35;3.05;;;16.10;99.90;;;;;;5071636;28;20033;-45
2023/05/10 08:20:08;;;;;;;6.63;3.00;;;16.10;99.90;;;;;;5072115;28;20024;-46
2023/05/10 08:22:34;;;;;;;5.00;2.97;;;16.00;99.90;;;;;;5053643;28;20029;-43
2023/05/10 08:24:59;;;;;;;3.25;2.95;;;15.90;99.90;;;;;;5066991;28;20028;-45
2023/05/10 08:27:25;;;;;;;4.93;3.05;;;15.90;99.90;;;;;;5052217;28;20029;-43
2023/05/10 08:29:50;;;;;;;3.20;2.85;;;15.80;99.90;;;;;;5058523;28;20444;-47
2023/05/10 08:32:16;;;;;;;2.33;1.60;;;15.90;99.90;;;;;;5070922;28;20459;-43
2023/05/10 08:34:42;;;;;;;3.08;1.60;;;15.90;99.90;;;;;;5053756;28;20021;-44
2023/05/10 08:37:08;;;;;;;2.05;1.60;;;15.80;99.90;;;;;;5071506;28;20483;-51
2023/05/10 08:39:36;;;;;;;1.98;1.77;;;15.80;99.90;;;;;;5072245;28;20016;-44
2023/05/10 08:42:04;;;;;;;1.95;1.40;;;15.80;99.90;;;;;;5063345;28;20431;-48
2023/05/10 08:44:32;;;;;;;5.47;1.63;;;15.80;99.90;;;;;;5051406;28;20060;-45
2023/05/10 08:46:59;;;;;;;3.90;1.58;;;15.80;99.90;;;;;;5051159;28;20021;-44
2023/05/10 08:49:27;;;;;;;6.05;1.80;;;15.70;99.90;;;;;;5054324;28;20028;-45
2023/05/10 08:51:55;;;;;;;1.52;1.30;;;15.60;99.90;;;;;;5051241;28;20389;-45
2023/05/10 08:54:22;;;;;;;1.45;1.40;;;15.60;99.90;;;;;;5051402;28;20343;-45
2023/05/10 08:56:47;;;;;;;5.97;1.30;;;15.60;99.90;;;;;;5058008;28;20081;-44
2023/05/10 08:59:14;;;;;;;1.73;1.33;;;15.60;99.90;;;;;;5071295;28;20476;-46
2023/05/10 09:01:41;;;;;;;1.23;1.00;;;15.70;99.90;;;;;;5065132;28;20099;-43
2023/05/10 09:04:06;;;;;;;1.98;1.00;;;15.80;99.90;;;;;;5051109;28;20033;-46
2023/05/10 09:06:33;;;;;;;1.20;1.17;;;15.80;99.90;;;;;;5048414;28;20035;-44
2023/05/10 09:08:59;;;;;;;3.13;1.10;;;16.00;99.90;;;;;;5050158;28;20025;-43
2023/05/10 09:11:25;;;;;;;1.02;1.02;;;16.10;99.90;;;;;;5056631;28;20028;-46
2023/05/10 09:13:52;;;;;;;1.30;1.15;;;16.20;99.90;;;;;;5068079;28;20103;-45
2023/05/10 09:16:17;;;;;;;2.20;1.30;;;16.30;99.90;;;;;;5033293;28;20052;-42
2023/05/10 09:18:43;;;;;;;1.10;1.08;;;16.40;99.90;;;;;;5050914;28;20067;-44
2023/05/10 09:21:10;;;;;;;2.47;1.35;;;16.40;99.90;;;;;;5051160;28;20461;-43
2023/05/10 09:23:35;;;;;;;1.65;1.27;;;16.20;99.90;;;;;;5050861;28;20100;-44
2023/05/10 09:26:05;;;;;;;0.90;0.90;;;16.20;99.90;;;;;;5050789;28;20029;-44
2023/05/10 09:28:49;;;;;;;3.15;1.15;;;16.20;99.90;;;;;;5050152;28;20382;-43
2023/05/10 09:31:15;;;;;;;2.63;0.73;;;16.10;99.90;;;;;;5050698;28;20029;-43
2023/05/10 09:33:48;;;;;;;1.35;0.65;;;16.00;99.90;;;;;;5031736;28;20021;-43
2023/05/10 09:36:14;;;;;;;4.60;3.10;;;15.80;99.90;;;;;;5051040;28;20657;-44
2023/05/10 09:38:47;;;;;;;46.25;31.27;;;15.50;99.90;;;;;;5050262;28;20107;-48
2023/05/10 09:41:23;;;;;;;3.88;1.85;;;15.20;99.90;;;;;;5050630;28;20017;-42
2023/05/10 09:43:49;;;;;;;1.10;0.63;;;15.10;99.90;;;;;;5065831;28;20039;-44
2023/05/10 09:46:15;;;;;;;0.70;0.70;;;15.00;99.90;;;;;;5038619;28;20026;-42
2023/05/10 09:48:45;;;;;;;1.13;0.80;;;14.90;99.90;;;;;;5054239;28;20035;-41
2023/05/10 09:51:20;;;;;;;1.00;1.00;;;15.00;99.90;;;;;;5054499;28;20096;-44
2023/05/10 09:53:46;;;;;;;3.38;1.23;;;15.00;99.90;;;;;;5035325;28;20128;-44
2023/05/10 09:56:11;;;;;;;1.75;0.80;;;15.10;99.90;;;;;;5052979;28;20107;-44
2023/05/10 09:58:40;;;;;;;3.35;1.00;;;15.20;99.90;;;;;;5050917;28;20467;-46
2023/05/10 10:01:11;;;;;;;1.60;0.88;;;15.40;99.90;;;;;;5052717;28;20039;-46
2023/05/10 10:03:42;;;;;;;1.77;0.90;;;15.60;99.90;;;;;;5053772;28;20476;-46
2023/05/10 10:06:08;;;;;;;1.23;1.00;;;15.90;99.90;;;;;;5034652;28;20024;-45
2023/05/10 10:08:34;;;;;;;1.85;0.80;;;16.00;99.90;;;;;;5053516;28;20025;-46
2023/05/10 10:11:00;;;;;;;1.40;0.90;;;16.20;99.90;;;;;;5054043;28;20021;-43
2023/05/10 10:13:25;;;;;;;1.13;0.80;;;16.40;99.90;;;;;;5054344;28;20017;-48
2023/05/10 10:15:54;;;;;;;2.70;0.95;;;16.60;99.90;;;;;;5054441;28;20104;-43
2023/05/10 10:18:23;;;;;;;1.75;1.35;;;16.70;99.90;;;;;;5053620;28;20234;-44
2023/05/10 10:20:49;;;;;;;0.80;0.80;;;16.80;99.90;;;;;;5053935;28;20025;-43
2023/05/10 10:23:15;;;;;;;1.10;1.05;;;16.90;99.90;;;;;;5054095;28;20031;-46
2023/05/10 10:25:41;;;;;;;3.25;0.90;;;16.80;99.90;;;;;;5053816;28;20100;-47
2023/05/10 10:28:34;;;;;;;3.40;0.70;;;16.80;99.90;;;;;;5053582;28;20055;-45
2023/05/10 10:31:15;;;;;;;1.40;1.38;;;16.70;99.90;;;;;;5053955;28;20048;-47
2023/05/10 10:34:06;;;;;;;4.30;0.93;;;16.60;99.90;;;;;;5053788;28;20033;-48
2023/05/10 10:36:53;;;;;;;6.13;1.13;;;16.40;99.90;;;;;;5054590;28;20538;-49
2023/05/10 10:39:20;;;;;;;0.77;0.73;;;16.20;99.90;;;;;;5053379;28;20482;-47
2023/05/10 10:41:53;;;;;;;0.93;0.93;;;16.10;99.90;;;;;;5054136;28;20048;-48
2023/05/10 10:44:22;;;;;;;0.73;0.70;;;16.00;99.90;;;;;;5053882;28;20399;-47
2023/05/10 10:47:08;;;;;;;2.53;0.75;;;15.90;99.90;;;;;;5053465;28;20059;-48
2023/05/10 10:49:43;;;;;;;4.97;0.80;;;15.90;99.90;;;;;;5053800;28;20108;-47
2023/05/10 10:52:28;;;;;;;1.23;0.68;;;15.80;99.90;;;;;;5052915;28;20029;-46
2023/05/10 10:55:00;;;;;;;0.60;0.60;;;15.80;99.90;;;;;;5053620;28;20036;-47
2023/05/10 10:57:26;;;;;;;14.63;5.65;;;15.80;99.90;;;;;;5052928;28;20033;-46
2023/05/10 11:00:18;;;;;;;9.57;5.13;;;15.80;99.90;;;;;;5053345;28;20496;-45
2023/05/10 11:02:58;;;;;;;4.72;2.95;;;15.80;99.90;;;;;;5034254;28;20040;-52
2023/05/10 11:05:37;;;;;;;1.95;1.00;;;15.90;99.90;;;;;;5033472;28;20040;-45
2023/05/10 11:08:16;;;;;;;1.05;0.90;;;16.00;99.90;;;;;;5050015;28;20481;-43
2023/05/10 11:10:51;;;;;;;5.25;0.70;;;16.00;99.90;;;;;;5052193;28;20083;-46
2023/05/10 11:13:28;;;;;;;1.55;0.95;;;16.10;99.90;;;;;;5053664;28;20049;-43
2023/05/10 11:15:53;;;;;;;4.20;0.73;;;16.10;99.90;;;;;;5053228;28;20033;-41
2023/05/10 11:18:29;;;;;;;1.55;0.70;;;16.20;99.90;;;;;;5038356;28;20025;-45
2023/05/10 11:21:02;;;;;;;3.20;0.93;;;16.30;99.90;;;;;;5052209;28;20086;-46
2023/05/10 11:23:43;;;;;;;0.60;0.60;;;16.30;99.90;;;;;;5053517;28;20032;-42
2023/05/10 11:26:09;;;;;;;1.52;0.68;;;16.40;99.90;;;;;;5052431;28;20123;-47
2023/05/10 11:28:43;;;;;;;2.83;0.70;;;16.40;99.90;;;;;;5052690;28;20029;-45
2023/05/10 11:31:08;;;;;;;4.60;0.80;;;16.50;99.90;;;;;;5052902;28;20021;-47
2023/05/10 11:33:52;;;;;;;3.72;0.80;;;16.70;99.90;;;;;;5067344;28;20358;-42
2023/05/10 11:36:26;;;;;;;2.40;0.65;;;16.90;99.90;;;;;;5052341;28;20059;-41
2023/05/10 11:38:52;;;;;;;2.38;0.50;;;17.10;99.90;;;;;;5052712;28;20103;-44
2023/05/10 11:41:21;;;;;;;1.92;0.90;;;17.40;99.90;;;;;;5051958;28;20029;-43
2023/05/10 11:43:49;;;;;;;1.20;0.95;;;17.70;99.90;;;;;;5051389;28;20515;-43
2023/05/10 11:46:16;;;;;;;1.55;1.20;;;17.90;99.90;;;;;;5052773;28;20047;-42
2023/05/10 11:48:42;;;;;;;0.60;0.57;;;18.00;99.90;;;;;;5052300;28;20029;-44
2023/05/10 11:51:08;;;;;;;0.68;0.52;;;18.10;99.90;;;;;;5066472;28;20396;-43
2023/05/10 11:53:34;;;;;;;7.00;0.80;;;18.10;99.90;;;;;;5072722;28;20140;-45
2023/05/10 11:56:07;;;;;;;0.95;0.52;;;18.10;99.90;;;;;;5072447;28;20499;-45
2023/05/10 11:58:33;;;;;;;2.50;0.57;;;18.30;99.90;;;;;;5072113;28;20529;-43
2023/05/10 12:01:02;;;;;;;1.02;0.40;;;18.40;99.90;;;;;;5060456;28;20057;-42
2023/05/10 12:03:29;;;;;;;0.98;0.63;;;18.50;99.90;;;;;;5052479;28;20064;-42
2023/05/10 12:05:55;;;;;;;0.60;0.60;;;18.50;99.90;;;;;;5052274;28;20480;-46
2023/05/10 12:08:25;;;;;;;54.83;37.20;;;18.50;99.90;;;;;;5051484;28;20506;-43
2023/05/10 12:10:52;;;;;;;18.02;12.57;;;18.50;99.90;;;;;;5052627;28;20025;-43
2023/05/10 12:13:20;;;;;;;20.63;12.93;;;18.60;99.90;;;;;;5052383;28;20020;-42
2023/05/10 12:15:46;;;;;;;1.73;1.50;;;18.60;99.90;;;;;;5052206;28;20029;-43
2023/05/10 12:18:13;;;;;;;0.98;0.80;;;18.70;99.90;;;;;;5050626;28;20063;-41
2023/05/10 12:20:39;;;;;;;0.77;0.52;;;18.80;99.90;;;;;;5051291;28;20036;-42
2023/05/10 12:23:07;;;;;;;0.57;0.55;;;19.00;99.90;;;;;;5052424;28;20033;-47
2023/05/10 12:25:35;;;;;;;1.08;0.50;;;19.00;99.90;;;;;;5051542;28;20041;-44
2023/05/10 12:28:03;;;;;;;2.50;0.60;;;19.00;99.90;;;;;;5033632;28;20096;-43
2023/05/10 12:31:04;;;;;;;1.48;0.50;;;19.00;99.90;;;;;;5051888;28;20047;-42
2023/05/10 12:33:41;;;;;;;0.50;0.50;;;19.00;99.90;;;;;;5048171;28;20028;-43
2023/05/10 12:36:07;;;;;;;1.63;0.47;;;19.10;99.90;;;;;;5052315;28;20025;-47
2023/05/10 12:38:35;;;;;;;0.75;0.70;;;19.20;99.90;;;;;;5051841;28;20514;-42
2023/05/10 12:41:02;;;;;;;0.60;0.40;;;19.10;99.90;;;;;;5051734;28;20085;-40
2023/05/10 12:43:28;;;;;;;0.60;0.60;;;19.00;99.90;;;;;;5051790;28;20025;-46
2023/05/10 12:45:54;;;;;;;3.25;0.60;;;18.90;99.90;;;;;;5051712;28;20035;-43
2023/05/10 12:48:20;;;;;;;1.95;1.20;;;18.90;99.90;;;;;;5051131;28;20484;-41
2023/05/10 12:50:46;;;;;;;1.15;0.85;;;18.90;99.90;;;;;;5051502;28;20434;-45